Cape Flattery, Washington
Current Conditions -  °F | °C
As of 10:53 AM on Thursday 30 Oct 2014 (Local Time) from KUIL Reporting Station
Light Rain Light Rain  
Wind Chill: 14°   Ceiling: 1900
Heat Index: 14°   Visibility: 4mi
Dew Point: 13°   Wind: 10mph
Humidity: 96%   Direction: 150°SSE
Pressure: 29.76"   Gusts: NA
Location:  48.3685°N, 124.623°W
Report Text: KUIL 301753Z AUTO 15009KT 120V190 4SM -RA BR BKN019 BKN031 OVC085 14/13 A2976 RMK AO2 SLP078 P0004 60041 T01390133 10139 20100 58002
Loading
Personal Weather Stations






























Interactive Weather Map
Tropical Storm Tracking
New forecast layout! Learn more

10-Day Weather Forecast

Advertisements
Track Severe Weather on mobile